createdAt,value
2018-08-12T05:26:10.731Z,4.47
2018-08-12T05:28:39.416Z,4.53
2018-08-12T06:33:08.760Z,2.35
2018-08-12T06:35:38.598Z,2.60
2018-08-12T06:38:07.420Z,2.65
2018-08-12T06:43:05.945Z,2.25
2018-08-12T06:45:34.870Z,2.20
2018-08-12T06:48:04.695Z,2.57
2018-08-12T06:50:33.601Z,2.60
2018-08-12T06:53:02.661Z,2.60
2018-08-12T06:55:31.670Z,2.20
2018-08-12T06:58:00.372Z,2.40
2018-08-12T07:00:29.527Z,2.30
2018-08-12T07:02:58.346Z,2.37
2018-08-12T07:05:27.476Z,4.27
2018-08-12T07:07:56.534Z,1.90
2018-08-12T07:10:26.415Z,2.20
2018-08-12T07:13:00.875Z,1.97
2018-08-12T07:15:30.883Z,1.90
2018-08-12T07:18:00.631Z,1.80
2018-08-12T07:20:35.135Z,1.77
2018-08-12T07:28:50.263Z,2.10
2018-08-12T07:31:19.704Z,1.90
2018-08-12T07:33:48.793Z,2.90
2018-08-12T07:36:18.577Z,1.87
2018-08-12T07:38:49.017Z,2.00
2018-08-12T07:41:18.837Z,2.47
2018-08-12T07:43:49.095Z,1.90
2018-08-12T07:46:18.361Z,1.93
2018-08-12T07:48:48.556Z,1.60
2018-08-12T07:51:18.084Z,1.97
2018-08-12T07:53:47.962Z,1.90
2018-08-12T07:56:17.922Z,2.10
2018-08-12T07:58:48.025Z,1.80
2018-08-12T08:01:17.985Z,1.70
2018-08-12T08:03:47.675Z,1.40
2018-08-12T08:06:17.484Z,1.80
2018-08-12T08:08:47.332Z,1.80
2018-08-12T08:11:17.394Z,2.10
2018-08-12T08:13:47.416Z,1.83
2018-08-12T08:19:10.618Z,1.83
2018-08-12T08:21:40.693Z,1.73
2018-08-12T08:24:10.227Z,1.80
2018-08-12T08:26:39.945Z,1.87
2018-08-12T08:29:10.711Z,1.67
2018-08-12T08:31:40.221Z,1.87
2018-08-12T08:34:10.109Z,1.97
2018-08-12T08:36:40.136Z,1.90
2018-08-12T08:39:12.814Z,1.83
2018-08-12T08:41:42.773Z,1.80
2018-08-12T08:44:12.531Z,1.60
2018-08-12T08:46:42.361Z,2.10
2018-08-12T08:49:11.643Z,1.80
2018-08-12T08:51:41.286Z,1.53
2018-08-12T08:54:10.351Z,1.70
2018-08-12T08:56:39.511Z,1.50
2018-08-12T08:59:08.544Z,1.70
2018-08-12T09:01:37.333Z,1.70
2018-08-12T09:04:06.880Z,1.53
2018-08-12T09:06:36.569Z,2.00
2018-08-12T09:09:09.669Z,1.50
2018-08-12T09:11:38.491Z,1.67
2018-08-12T09:14:07.613Z,1.50
2018-08-12T09:16:36.715Z,1.50
2018-08-12T09:19:05.699Z,1.20
2018-08-12T09:21:34.856Z,1.23
2018-08-12T09:24:03.756Z,1.80
2018-08-12T09:26:32.884Z,1.77
2018-08-12T09:29:02.276Z,1.60
2018-08-12T09:31:32.508Z,1.90
2018-08-12T09:36:54.563Z,1.47
2018-08-12T09:39:23.817Z,1.60
2018-08-12T09:41:53.406Z,1.50
2018-08-12T09:44:22.277Z,1.50
2018-08-12T09:46:51.358Z,1.40
2018-08-12T09:49:20.755Z,1.53
2018-08-12T09:51:49.790Z,1.40
2018-08-12T09:54:19.488Z,1.60
2018-08-12T09:56:48.545Z,1.53
2018-08-12T09:59:19.610Z,1.50
2018-08-12T10:01:49.565Z,1.70
2018-08-12T10:04:20.711Z,1.63
2018-08-12T10:07:02.881Z,1.50
2018-08-12T10:09:34.322Z,1.40
2018-08-12T10:12:05.808Z,1.53
2018-08-12T10:17:28.709Z,1.63
2018-08-12T10:19:58.479Z,1.70
2018-08-12T10:22:28.634Z,1.75
2018-08-12T10:25:03.859Z,1.40
2018-08-12T10:27:33.313Z,1.40
2018-08-12T10:30:04.655Z,1.57
2018-08-12T10:32:34.749Z,1.60
2018-08-12T10:35:05.033Z,1.50
2018-08-12T10:37:35.624Z,1.77
2018-08-12T10:40:06.755Z,1.80
2018-08-12T10:42:36.729Z,1.30
2018-08-12T10:45:11.814Z,1.47
2018-08-12T10:50:34.372Z,1.72
2018-08-12T10:53:05.578Z,1.40
2018-08-12T10:55:36.864Z,1.30
2018-08-12T10:58:07.398Z,1.80
2018-08-12T11:00:38.793Z,1.60
2018-08-12T11:03:09.251Z,1.60
2018-08-12T11:05:39.173Z,1.70
2018-08-12T11:11:06.752Z,1.60
2018-08-12T11:16:12.296Z,1.67
2018-08-12T11:18:42.358Z,1.50
2018-08-12T11:27:00.088Z,1.50
2018-08-12T11:29:30.648Z,1.70
2018-08-12T11:32:01.071Z,1.60
2018-08-12T11:34:32.632Z,1.47
2018-08-12T11:37:02.743Z,1.70
2018-08-12T11:39:32.872Z,1.40
2018-08-12T11:42:08.281Z,1.50
2018-08-12T11:44:39.089Z,1.70
2018-08-12T11:47:10.360Z,1.30
2018-08-12T11:49:40.373Z,1.47
2018-08-12T11:52:10.917Z,1.70
2018-08-12T12:00:27.333Z,1.30
2018-08-12T12:02:57.675Z,1.40
2018-08-12T12:05:28.676Z,1.50
2018-08-12T12:08:04.400Z,1.30
2018-08-12T12:10:34.327Z,1.60
2018-08-12T12:13:03.579Z,1.57
2018-08-12T12:18:25.795Z,1.77
2018-08-12T12:20:55.525Z,1.37
2018-08-12T12:23:25.728Z,1.60
2018-08-12T12:25:56.212Z,1.30
2018-08-12T12:28:31.281Z,1.60
2018-08-12T12:31:01.190Z,1.70
2018-08-12T12:33:31.299Z,1.37
2018-08-12T12:36:00.322Z,1.40
2018-08-12T12:38:29.123Z,1.50
2018-08-12T12:40:58.140Z,1.43
2018-08-12T12:43:27.024Z,1.60
2018-08-12T12:45:55.984Z,1.60
2018-08-12T12:48:25.782Z,1.80
2018-08-12T12:53:47.726Z,1.53
2018-08-12T12:56:16.640Z,1.80
2018-08-12T12:58:45.437Z,1.33
2018-08-12T13:01:14.143Z,1.77
2018-08-12T13:03:42.872Z,1.47
2018-08-12T13:06:11.674Z,1.40
2018-08-12T13:08:40.370Z,1.20
2018-08-12T13:11:09.269Z,1.60
2018-08-12T13:13:38.182Z,1.40
2018-08-12T13:16:07.098Z,1.40
2018-08-12T13:18:36.004Z,1.33
2018-08-12T13:21:04.829Z,1.80
2018-08-12T13:23:33.672Z,1.63
2018-08-12T13:26:02.681Z,1.50
2018-08-12T13:28:31.442Z,1.47
2018-08-12T13:31:00.515Z,1.27
2018-08-12T13:33:29.406Z,1.23
2018-08-12T13:35:58.262Z,1.30
2018-08-12T13:38:27.467Z,1.50
2018-08-12T13:40:56.346Z,1.40
2018-08-12T13:43:25.065Z,1.37
2018-08-12T13:45:54.085Z,1.43
2018-08-12T13:48:23.025Z,1.47
2018-08-12T13:50:51.957Z,1.27
2018-08-12T13:53:21.547Z,1.60
2018-08-12T13:55:50.546Z,1.60
2018-08-12T13:58:21.351Z,1.53
2018-08-12T14:00:50.106Z,1.57
2018-08-12T14:03:18.972Z,1.50
2018-08-12T14:05:47.766Z,1.40
2018-08-12T14:08:17.016Z,1.50
2018-08-12T14:10:46.141Z,1.50
2018-08-12T14:13:15.533Z,1.37
2018-08-12T14:15:44.509Z,1.60
2018-08-12T14:18:13.887Z,1.53
2018-08-12T14:20:43.385Z,1.40
2018-08-12T14:23:12.141Z,1.67
2018-08-12T14:25:41.429Z,1.53
2018-08-12T14:28:11.445Z,1.53
2018-08-12T14:30:40.805Z,1.50
2018-08-12T14:33:10.688Z,1.40
2018-08-12T14:35:40.043Z,2.70
2018-08-12T14:38:09.237Z,1.67
2018-08-12T14:40:38.385Z,1.30
2018-08-12T14:43:07.819Z,1.30
2018-08-12T14:45:37.782Z,1.60
2018-08-12T14:48:06.983Z,1.50
2018-08-12T14:50:36.714Z,1.40
2018-08-12T14:53:06.052Z,1.53
2018-08-12T14:55:35.096Z,1.67
2018-08-12T14:58:03.937Z,1.50
2018-08-12T15:00:33.144Z,1.60
2018-08-12T15:03:03.072Z,2.07
2018-08-12T15:05:32.038Z,1.40
2018-08-12T15:08:01.000Z,1.20
2018-08-12T15:10:30.470Z,1.77
2018-08-12T15:12:59.439Z,1.50
2018-08-12T15:15:28.333Z,1.70
2018-08-12T15:17:57.150Z,1.40
2018-08-12T15:20:26.107Z,1.97
2018-08-12T15:22:55.166Z,1.63
2018-08-12T15:25:24.982Z,1.70
2018-08-12T15:27:58.781Z,1.10
2018-08-12T15:30:27.676Z,1.60
2018-08-12T15:32:56.837Z,1.40
2018-08-12T15:35:26.217Z,1.60
2018-08-12T15:37:55.239Z,1.70
2018-08-12T15:40:24.429Z,1.47
2018-08-12T15:42:53.559Z,1.33
2018-08-12T15:46:53.645Z,1.60
2018-08-12T15:49:22.546Z,1.80
2018-08-12T15:51:52.737Z,1.70
2018-08-12T15:54:22.056Z,2.20
2018-08-12T15:56:52.401Z,1.40
2018-08-12T15:59:21.927Z,1.33
2018-08-12T16:01:50.889Z,1.50
2018-08-12T16:04:19.782Z,2.03
2018-08-12T16:06:48.967Z,1.20
2018-08-12T16:09:17.952Z,1.67
2018-08-12T16:11:46.824Z,1.67
2018-08-12T16:14:16.976Z,1.60
2018-08-12T16:16:45.774Z,1.37
2018-08-12T16:19:14.926Z,1.23
2018-08-12T16:21:44.380Z,1.60
2018-08-12T16:24:13.258Z,1.83
2018-08-12T16:26:42.465Z,1.40
2018-08-12T16:29:12.553Z,1.60
2018-08-12T16:31:43.048Z,1.77
2018-08-12T16:34:12.172Z,1.60
2018-08-12T16:36:42.410Z,2.00
2018-08-12T16:39:12.946Z,2.00
2018-08-12T16:41:43.288Z,1.60
2018-08-12T16:44:14.464Z,1.40
2018-08-12T16:46:43.631Z,1.50
2018-08-12T16:49:12.468Z,3.23
2018-08-12T16:51:41.714Z,1.40
2018-08-12T16:54:10.686Z,1.00
2018-08-12T16:56:41.165Z,1.80
2018-08-12T16:59:10.066Z,1.80
2018-08-12T17:01:39.350Z,1.50
2018-08-12T17:04:08.159Z,1.53
2018-08-12T17:06:37.012Z,1.70
2018-08-12T17:09:08.885Z,1.60
2018-08-12T17:11:38.651Z,1.60
2018-08-12T17:14:08.839Z,1.20
2018-08-12T17:16:38.167Z,1.73
2018-08-12T17:19:07.309Z,1.80
2018-08-12T17:21:36.656Z,1.53
2018-08-12T17:24:05.614Z,1.50
2018-08-12T17:26:34.398Z,1.63
2018-08-12T17:29:04.724Z,1.77
2018-08-12T17:31:36.212Z,1.73
2018-08-12T17:34:05.719Z,1.30
2018-08-12T17:36:34.391Z,2.80
2018-08-12T17:39:03.433Z,1.33
2018-08-12T17:41:32.401Z,1.30
2018-08-12T17:44:02.058Z,1.50
2018-08-12T17:46:31.544Z,1.83
2018-08-12T17:49:00.636Z,1.50
2018-08-12T17:51:29.730Z,1.23
2018-08-12T17:54:00.455Z,1.60
2018-08-12T17:56:30.627Z,1.60
2018-08-12T17:58:59.744Z,1.67
2018-08-12T18:01:28.788Z,1.60
2018-08-12T18:03:57.693Z,1.57
2018-08-12T18:06:27.252Z,2.00
2018-08-12T18:08:56.463Z,1.40
2018-08-12T18:11:25.077Z,1.50
2018-08-12T18:13:53.868Z,1.80
2018-08-12T18:16:22.780Z,1.77
2018-08-12T18:18:52.333Z,1.90
2018-08-12T18:21:21.372Z,1.70
2018-08-12T18:23:50.669Z,1.80
2018-08-12T18:26:19.751Z,1.80
2018-08-12T18:28:49.393Z,1.80
2018-08-12T18:31:18.374Z,2.07
2018-08-12T18:33:47.090Z,2.03
2018-08-12T18:36:15.912Z,1.40
2018-08-12T18:38:44.802Z,1.80
2018-08-12T18:41:13.626Z,1.93
2018-08-12T18:43:43.696Z,1.50
2018-08-12T18:46:12.665Z,2.00
2018-08-12T18:48:41.484Z,1.60
2018-08-12T18:51:10.605Z,1.70
2018-08-12T18:53:40.249Z,1.90
2018-08-12T18:56:09.173Z,1.50
2018-08-12T18:58:37.934Z,1.60
2018-08-12T19:01:07.104Z,1.97
2018-08-12T19:03:36.078Z,2.10
2018-08-12T19:06:05.521Z,2.00
2018-08-12T19:08:34.510Z,2.40
2018-08-12T19:11:03.284Z,2.07
2018-08-12T19:13:32.184Z,1.90
2018-08-12T19:16:01.015Z,2.40
2018-08-12T19:18:29.753Z,2.00
2018-08-12T19:20:58.613Z,2.00
2018-08-12T19:23:28.251Z,2.57
2018-08-12T19:25:57.111Z,1.80
2018-08-12T19:28:26.071Z,2.00
2018-08-12T19:30:55.104Z,2.27
2018-08-12T19:33:24.328Z,2.45
2018-08-12T19:35:53.212Z,2.70
2018-08-12T19:38:22.373Z,1.80
2018-08-12T19:40:51.305Z,2.60
2018-08-12T19:43:20.172Z,2.07
2018-08-12T19:45:49.419Z,2.30
2018-08-12T19:48:18.282Z,2.60
2018-08-12T19:50:47.462Z,2.13
2018-08-12T19:53:16.713Z,2.20
2018-08-12T19:55:45.772Z,3.00
2018-08-12T19:58:21.118Z,2.37
2018-08-12T20:00:50.678Z,2.50
2018-08-12T20:03:20.151Z,2.45
2018-08-12T20:05:49.053Z,2.40
2018-08-12T20:08:17.718Z,2.80
2018-08-12T20:10:46.829Z,2.20
2018-08-12T20:13:15.770Z,2.50
2018-08-12T20:15:45.477Z,2.63
2018-08-12T20:18:14.333Z,2.87
2018-08-12T20:20:43.591Z,2.40
2018-08-12T20:23:12.632Z,2.40
2018-08-12T20:25:41.685Z,2.55
2018-08-12T20:28:10.539Z,2.60
2018-08-12T20:30:40.336Z,3.63
2018-08-12T20:33:09.209Z,2.67
2018-08-12T20:35:38.483Z,3.10
2018-08-12T20:38:07.766Z,2.20
2018-08-12T20:40:36.766Z,2.70
2018-08-12T20:43:05.612Z,2.57
2018-08-12T20:45:34.534Z,2.60
2018-08-12T20:48:03.164Z,2.77
2018-08-12T20:50:31.731Z,3.25
2018-08-12T20:53:00.643Z,2.60
2018-08-12T20:55:29.273Z,2.60
2018-08-12T20:57:58.003Z,2.40
2018-08-12T21:00:28.355Z,3.15
2018-08-12T21:02:56.989Z,2.50
2018-08-12T21:07:53.449Z,2.60
2018-08-12T21:10:22.523Z,2.50
2018-08-12T21:15:19.361Z,3.35
2018-08-12T21:17:48.252Z,3.35
2018-08-12T21:20:17.087Z,3.30
2018-08-12T21:22:46.286Z,2.50
2018-08-12T21:25:16.004Z,2.70
2018-08-12T21:27:45.304Z,2.33
2018-08-12T21:30:14.785Z,2.13
2018-08-12T21:32:44.063Z,2.33
2018-08-12T21:35:13.218Z,2.23
2018-08-12T21:37:42.174Z,2.80
2018-08-12T21:40:11.319Z,2.30
2018-08-12T21:42:40.155Z,2.20
2018-08-12T21:50:30.558Z,2.30
2018-08-12T21:52:59.826Z,2.40
2018-08-12T21:55:28.746Z,2.60
2018-08-12T21:57:57.734Z,2.40
2018-08-12T22:02:55.262Z,2.15
2018-08-12T22:05:25.036Z,2.60
2018-08-12T22:07:53.958Z,2.57
2018-08-12T22:10:22.836Z,2.55
2018-08-12T22:12:52.222Z,2.80
2018-08-12T22:15:21.195Z,2.80
2018-08-12T22:17:49.993Z,2.80
2018-08-12T22:37:37.110Z,2.00
2018-08-12T23:27:04.040Z,2.60
2018-08-12T23:54:15.663Z,3.05
